Time;durP1;ratioP1;P1;durP2;ratioP2;P2;SDS_P1;SDS_P2;PMS_P1;PMS_P2;Temp;Humidity;BMP_temperature;BMP_pressure;BME280_temperature;BME280_humidity;BME280_pressure;Samples;Min_cycle;Max_cycle;Signal;HPM_P1;HPM_P2
2022/04/04 00:02:27;;;;;;;11.87;10.67;;;;;;;0.66;100.00;96629.22;5027897;28;105022;-60
2022/04/04 00:04:54;;;;;;;14.37;11.80;;;;;;;0.71;100.00;96629.50;5028259;28;101924;-60
2022/04/04 00:07:21;;;;;;;12.40;11.10;;;;;;;0.80;100.00;96631.00;5028358;28;104777;-60
2022/04/04 00:09:48;;;;;;;12.10;10.80;;;;;;;0.82;100.00;96629.03;5027449;28;105197;-60
2022/04/04 00:12:16;;;;;;;13.90;11.60;;;;;;;0.82;100.00;96634.25;5031692;28;101885;-60
2022/04/04 00:14:43;;;;;;;13.23;11.80;;;;;;;0.70;100.00;96631.28;5027314;28;105058;-60
2022/04/04 00:17:11;;;;;;;14.87;10.93;;;;;;;0.68;100.00;96630.66;5029744;27;101750;-60
2022/04/04 00:19:40;;;;;;;12.23;10.90;;;;;;;0.63;100.00;96619.94;5027962;28;105433;-60
2022/04/04 00:22:08;;;;;;;11.20;10.10;;;;;;;0.64;100.00;96625.97;5027612;28;104332;-60
2022/04/04 00:24:35;;;;;;;11.70;10.50;;;;;;;0.72;100.00;96624.06;5027818;28;101849;-60
2022/04/04 00:27:02;;;;;;;12.30;11.03;;;;;;;0.70;100.00;96615.59;5028087;28;105512;-60
2022/04/04 00:29:29;;;;;;;11.93;10.83;;;;;;;0.77;100.00;96613.84;5028854;28;102861;-60
2022/04/04 00:31:56;;;;;;;13.60;11.27;;;;;;;0.69;100.00;96613.16;5031483;28;101910;-60
2022/04/04 00:34:23;;;;;;;11.83;10.73;;;;;;;0.70;100.00;96610.34;5027238;28;105780;-60
2022/04/04 00:36:52;;;;;;;15.70;11.83;;;;;;;0.69;100.00;96608.72;5027879;28;101872;-60
2022/04/04 00:39:19;;;;;;;14.60;12.70;;;;;;;0.75;100.00;96610.63;5027621;28;105447;-60
2022/04/04 00:41:46;;;;;;;14.23;12.57;;;;;;;0.78;100.00;96602.38;5028769;28;102531;-60
2022/04/04 00:44:13;;;;;;;13.10;11.47;;;;;;;0.53;100.00;96606.31;5027741;28;101854;-60
2022/04/04 00:46:41;;;;;;;12.90;11.47;;;;;;;0.54;100.00;96600.09;5027608;28;105059;-60
2022/04/04 00:49:09;;;;;;;14.53;11.83;;;;;;;0.60;100.00;96593.34;5026927;28;105067;-60
2022/04/04 00:51:37;;;;;;;13.37;11.43;;;;;;;0.57;100.00;96593.69;5027649;28;101993;-60
2022/04/04 00:54:06;;;;;;;12.53;11.33;;;;;;;0.64;100.00;96594.56;5030560;28;105527;-60
2022/04/04 00:56:34;;;;;;;12.10;10.90;;;;;;;0.69;100.00;96586.97;5027483;28;101849;-60
2022/04/04 00:59:05;;;;;;;14.87;11.93;;;;;;;0.59;100.00;96589.88;5027637;28;104876;-60
2022/04/04 01:01:33;;;;;;;13.83;11.67;;;;;;;0.64;100.00;96582.31;5027065;28;106322;-60
2022/04/04 01:04:01;;;;;;;12.73;11.33;;;;;;;0.74;100.00;96584.63;5027534;28;101945;-60
2022/04/04 01:06:28;;;;;;;14.70;13.03;;;;;;;0.75;100.00;96586.22;5027209;28;105797;-60
2022/04/04 01:08:55;;;;;;;15.63;12.77;;;;;;;0.79;100.00;96579.66;5028265;28;102773;-60
2022/04/04 01:11:23;;;;;;;13.90;12.13;;;;;;;0.73;100.00;96578.56;5028768;27;101878;-60
2022/04/04 01:13:51;;;;;;;14.73;12.33;;;;;;;0.79;100.00;96571.78;5028644;27;104314;-60
2022/04/04 01:16:19;;;;;;;13.07;11.43;;;;;;;0.81;100.00;96581.09;5028700;28;105204;-60
2022/04/04 01:18:46;;;;;;;12.23;11.03;;;;;;;0.76;100.00;96572.97;5061216;27;105650;-60
2022/04/04 01:21:13;;;;;;;12.87;11.57;;;;;;;0.82;100.00;96576.66;5026601;28;105758;-60
2022/04/04 01:23:42;;;;;;;12.93;11.57;;;;;;;0.84;100.00;96572.03;5027173;28;101882;-60
2022/04/04 01:26:13;;;;;;;13.23;11.87;;;;;;;0.83;100.00;96565.19;5028647;27;105014;-60
2022/04/04 01:28:41;;;;;;;12.90;11.43;;;;;;;0.86;100.00;96570.03;5030440;28;106200;-60
2022/04/04 01:31:09;;;;;;;13.10;11.57;;;;;;;0.86;100.00;96567.44;5032142;28;101827;-60
2022/04/04 01:33:37;;;;;;;13.37;12.03;;;;;;;0.78;100.00;96555.25;5030759;28;104140;-60
2022/04/04 01:36:05;;;;;;;13.80;12.23;;;;;;;0.76;100.00;96553.81;5029767;28;105507;-60
2022/04/04 01:38:32;;;;;;;14.27;12.67;;;;;;;0.69;100.00;96550.34;5033988;28;102068;-60
2022/04/04 01:40:59;;;;;;;12.87;11.57;;;;;;;0.72;100.00;96549.97;5030066;28;103212;-60
2022/04/04 01:43:29;;;;;;;13.53;12.13;;;;;;;0.69;100.00;96545.09;5030461;28;101902;-60
2022/04/04 01:48:40;;;;;;;12.87;11.47;;;;;;;0.40;100.00;96540.75;5029673;28;105829;-60
2022/04/04 01:51:07;;;;;;;14.23;12.13;;;;;;;0.45;100.00;96542.84;5031968;28;101975;-60
2022/04/04 01:53:35;;;;;;;14.03;12.53;;;;;;;0.39;100.00;96546.19;5030008;28;104014;-60
2022/04/04 01:56:05;;;;;;;14.00;12.47;;;;;;;0.36;100.00;96547.38;5029817;28;104219;-60
2022/04/04 01:58:34;;;;;;;13.40;12.00;;;;;;;0.33;100.00;96550.34;5030457;28;101936;-60
2022/04/04 02:01:04;;;;;;;13.43;12.00;;;;;;;0.21;100.00;96550.97;5033278;28;104942;-60
2022/04/04 02:03:32;;;;;;;13.53;12.23;;;;;;;0.19;100.00;96558.22;5030176;28;101976;-60
2022/04/04 02:06:02;;;;;;;14.00;12.60;;;;;;;0.12;100.00;96557.31;5029938;28;103786;-60
2022/04/04 02:08:29;;;;;;;14.77;11.97;;;;;;;-0.13;100.00;96554.19;5029521;28;104731;-60
2022/04/04 02:10:56;;;;;;;13.07;11.67;;;;;;;-0.22;100.00;96543.97;5030297;28;102277;-60
2022/04/04 02:13:25;;;;;;;13.87;12.37;;;;;;;-0.21;100.00;96549.03;5031663;28;102521;-60
2022/04/04 02:15:55;;;;;;;13.93;12.40;;;;;;;-0.27;100.00;96552.34;5029566;28;106700;-60
2022/04/04 02:18:22;;;;;;;13.63;11.73;;;;;;;-0.43;100.00;96552.53;5030124;28;101805;-60
2022/04/04 02:20:50;;;;;;;15.03;13.40;;;;;;;-0.47;100.00;96549.63;5029567;28;106516;-60
2022/04/04 02:23:18;;;;;;;14.40;12.87;;;;;;;-0.40;100.00;96546.13;5032815;28;105041;-60
2022/04/04 02:25:45;;;;;;;14.97;13.37;;;;;;;-0.34;100.00;96548.03;5030048;28;104874;-60
2022/04/04 02:28:14;;;;;;;14.73;12.90;;;;;;;-0.33;100.00;96541.81;5029430;28;105140;-60
2022/04/04 02:30:42;;;;;;;16.40;13.77;;;;;;;-0.38;100.00;96537.13;5029762;28;101885;-60
2022/04/04 02:33:12;;;;;;;15.80;13.07;;;;;;;-0.39;100.00;96537.31;5029640;28;105272;-60
2022/04/04 02:35:40;;;;;;;15.63;13.70;;;;;;;-0.56;100.00;96540.28;5029119;28;105230;-60
2022/04/04 02:38:09;;;;;;;15.47;12.87;;;;;;;-0.61;100.00;96532.94;5030720;27;101824;-60
2022/04/04 02:40:36;;;;;;;15.07;13.37;;;;;;;-0.48;100.00;96535.78;5031028;27;102641;-60
2022/04/04 02:43:04;;;;;;;15.03;13.43;;;;;;;-0.52;100.00;96538.91;5034266;27;102553;-60
2022/04/04 02:45:31;;;;;;;15.03;13.13;;;;;;;-0.53;100.00;96532.88;5029344;28;105546;-60
2022/04/04 02:47:58;;;;;;;15.23;13.53;;;;;;;-0.45;100.00;96537.22;5029007;28;105526;-60
2022/04/04 02:50:27;;;;;;;14.40;12.47;;;;;;;-0.41;100.00;96534.06;5030465;28;101805;-60
2022/04/04 02:52:55;;;;;;;14.90;12.57;;;;;;;-0.42;100.00;96533.25;5030463;28;102512;-60
2022/04/04 02:58:07;;;;;;;17.00;13.20;;;;;;;-0.45;100.00;96524.16;5031105;27;101665;-60
2022/04/04 03:00:34;;;;;;;14.87;13.13;;;;;;;-0.47;100.00;96528.75;5030609;27;102559;-60
2022/04/04 03:03:01;;;;;;;16.43;13.23;;;;;;;-0.64;100.00;96530.72;5030239;28;102792;-60
2022/04/04 03:05:30;;;;;;;13.37;11.87;;;;;;;-0.60;100.00;96528.56;5034020;28;101833;-60
2022/04/04 03:07:57;;;;;;;14.40;12.10;;;;;;;-0.62;100.00;96520.88;5029835;27;102646;-60
2022/04/04 03:10:24;;;;;;;13.87;12.27;;;;;;;-0.61;100.00;96516.50;5030675;28;101835;-60
2022/04/04 03:12:52;;;;;;;13.70;12.10;;;;;;;-0.65;100.00;96516.03;5030703;27;102953;-60
2022/04/04 03:15:21;;;;;;;14.00;12.10;;;;;;;-0.65;100.00;96515.22;5030017;28;102807;-60
2022/04/04 03:17:50;;;;;;;14.03;12.23;;;;;;;-0.70;100.00;96518.38;5030570;28;102013;-60
2022/04/04 03:20:19;;;;;;;14.30;11.87;;;;;;;-0.65;100.00;96508.22;5030174;27;102789;-60
2022/04/04 03:22:49;;;;;;;17.70;13.07;;;;;;;-0.68;100.00;96520.78;5030129;28;102873;-60
2022/04/04 03:25:17;;;;;;;15.20;13.40;;;;;;;-0.72;100.00;96517.72;5029069;28;101788;-60
2022/04/04 03:27:45;;;;;;;14.73;12.80;;;;;;;-0.74;100.00;96516.28;5033036;28;102354;-60
2022/04/04 03:30:15;;;;;;;15.67;12.67;;;;;;;-0.74;100.00;96519.72;5030204;27;102259;-60
2022/04/04 03:32:42;;;;;;;13.73;12.27;;;;;;;-0.83;100.00;96512.13;5030154;28;102409;-60
2022/04/04 03:35:10;;;;;;;13.50;12.07;;;;;;;-0.76;100.00;96516.47;5028200;28;105954;-60
2022/04/04 03:37:38;;;;;;;15.00;12.40;;;;;;;-0.81;100.00;96517.97;5028446;28;102196;-60
2022/04/04 03:40:12;;;;;;;19.03;14.23;;;;;;;-0.77;100.00;96512.22;5030096;27;102847;-60
2022/04/04 03:42:39;;;;;;;13.77;12.27;;;;;;;-0.95;100.00;96509.13;5028132;28;105687;-60
2022/04/04 03:45:07;;;;;;;15.53;12.97;;;;;;;-0.85;100.00;96504.47;5028685;28;101924;-60
2022/04/04 03:47:34;;;;;;;16.17;13.33;;;;;;;-0.80;100.00;96501.31;5028602;28;102609;-60
2022/04/04 03:50:01;;;;;;;17.37;14.00;;;;;;;-0.80;100.00;96501.31;5031387;28;102907;-60
2022/04/04 03:52:29;;;;;;;15.63;13.83;;;;;;;-0.72;100.00;96499.44;5030001;28;102452;-60
2022/04/04 03:54:55;;;;;;;16.60;14.07;;;;;;;-0.66;100.00;96485.66;5029490;28;102551;-60
2022/04/04 03:57:24;;;;;;;15.40;13.77;;;;;;;-0.62;100.00;96486.16;5029876;28;102253;-61
2022/04/04 03:59:51;;;;;;;15.33;13.53;;;;;;;-0.72;100.00;96489.00;5029589;28;102906;-60
2022/04/04 04:02:18;;;;;;;17.03;13.67;;;;;;;-0.92;100.00;96487.91;5029243;28;103242;-60
2022/04/04 04:04:45;;;;;;;13.83;12.37;;;;;;;-0.86;100.00;96497.63;5029725;27;101893;-60
2022/04/04 04:07:15;;;;;;;15.03;13.23;;;;;;;-0.78;100.00;96497.53;5029624;27;102869;-60
2022/04/04 04:09:43;;;;;;;13.37;11.97;;;;;;;-0.76;100.00;96490.38;5029170;27;105201;-60
2022/04/04 04:12:11;;;;;;;13.87;12.30;;;;;;;-0.71;100.00;96485.41;5032896;27;101891;-60
2022/04/04 04:14:41;;;;;;;13.50;11.80;;;;;;;-0.78;100.00;96489.72;5029107;27;101980;-60
2022/04/04 04:17:08;;;;;;;13.63;12.13;;;;;;;-0.82;100.00;96490.25;5029559;27;101709;-60
2022/04/04 04:22:21;;;;;;;13.80;12.17;;;;;;;-0.92;100.00;96476.66;5029114;27;102737;-60
2022/04/04 04:24:48;;;;;;;17.63;12.33;;;;;;;-0.91;100.00;96484.31;5029519;27;101869;-60
2022/04/04 04:27:16;;;;;;;13.17;11.73;;;;;;;-0.97;100.00;96478.97;5029193;28;102549;-60
2022/04/04 04:29:44;;;;;;;13.83;12.07;;;;;;;-1.11;100.00;96482.38;5028923;28;102622;-60
2022/04/04 04:32:12;;;;;;;14.80;12.10;;;;;;;-1.07;100.00;96483.63;5029031;27;101695;-60
2022/04/04 04:34:40;;;;;;;14.57;12.23;;;;;;;-1.08;100.00;96474.19;5032387;27;102886;-60
2022/04/04 04:37:07;;;;;;;13.43;12.00;;;;;;;-1.19;100.00;96478.03;5028751;27;101886;-60
2022/04/04 04:39:34;;;;;;;14.43;11.73;;;;;;;-1.31;100.00;96487.22;5029281;28;102447;-60
2022/04/04 04:42:01;;;;;;;12.97;11.43;;;;;;;-1.27;100.00;96491.13;5028593;28;101793;-60
2022/04/04 04:44:28;;;;;;;13.00;11.27;;;;;;;-1.27;100.00;96480.69;5029109;27;101751;-60
2022/04/04 04:46:56;;;;;;;13.67;11.77;;;;;;;-1.34;100.00;96482.38;5027752;28;104099;-60
2022/04/04 04:49:25;;;;;;;13.47;11.70;;;;;;;-1.41;100.00;96486.69;5027882;28;102691;-60
2022/04/04 04:51:53;;;;;;;15.40;11.93;;;;;;;-1.51;100.00;96486.09;5027717;28;101992;-60
2022/04/04 04:54:20;;;;;;;14.07;11.90;;;;;;;-1.43;100.00;96491.25;5030574;28;104034;-60
2022/04/04 04:56:47;;;;;;;13.37;11.93;;;;;;;-1.35;100.00;96491.19;5028989;28;101799;-60
2022/04/04 04:59:14;;;;;;;12.97;10.97;;;;;;;-1.27;100.00;96496.34;5027344;27;105351;-60
2022/04/04 05:01:41;;;;;;;13.60;11.90;;;;;;;-1.22;100.00;96495.84;5030667;28;102640;-60
2022/04/04 05:04:10;;;;;;;16.43;12.30;;;;;;;-1.24;100.00;96497.78;5032642;28;101796;-60
2022/04/04 05:06:37;;;;;;;12.80;11.40;;;;;;;-1.30;100.00;96491.50;5031324;28;103549;-60
2022/04/04 05:09:03;;;;;;;14.93;11.83;;;;;;;-1.31;100.00;96495.06;5030197;28;106239;-60
2022/04/04 05:11:31;;;;;;;13.33;11.37;;;;;;;-1.42;100.00;96499.88;5031169;28;102159;-60
2022/04/04 05:13:58;;;;;;;13.43;11.47;;;;;;;-1.51;100.00;96496.53;5032346;28;102515;-60
2022/04/04 05:16:28;;;;;;;17.23;12.47;;;;;;;-1.50;100.00;96492.94;5034050;28;102704;-60
2022/04/04 05:18:56;;;;;;;14.87;11.63;;;;;;;-1.27;100.00;96498.16;5031140;28;103595;-60
2022/04/04 05:21:25;;;;;;;14.87;11.73;;;;;;;-1.09;100.00;96499.44;5030307;28;104338;-60
2022/04/04 05:23:52;;;;;;;16.17;13.07;;;;;;;-1.05;100.00;96502.53;5030930;28;101855;-60
2022/04/04 05:26:19;;;;;;;16.83;13.73;;;;;;;-1.05;100.00;96510.38;5032267;28;102337;-60
2022/04/04 05:28:46;;;;;;;16.90;14.43;;;;;;;-1.03;100.00;96508.38;5031481;28;104091;-60
2022/04/04 05:31:13;;;;;;;16.63;14.27;;;;;;;-0.97;100.00;96505.91;5032102;28;101872;-60
2022/04/04 05:33:40;;;;;;;19.33;15.63;;;;;;;-0.86;100.00;96512.47;5030657;28;105541;-60
2022/04/04 05:36:07;;;;;;;20.67;15.97;;;;;;;-0.78;100.00;96510.59;5030190;28;105253;-60
2022/04/04 05:38:36;;;;;;;18.87;15.63;;;;;;;-0.75;100.00;96515.47;5033717;28;102217;-59
2022/04/04 05:41:03;;;;;;;20.03;16.17;;;;;;;-0.86;100.00;96522.91;5029780;28;105510;-60
2022/04/04 05:43:30;;;;;;;20.73;16.53;;;;;;;-0.78;100.00;96513.22;5030239;28;101905;-60
2022/04/04 05:45:57;;;;;;;22.10;17.27;;;;;;;-0.75;100.00;96512.03;5030319;28;105507;-60
2022/04/04 05:48:27;;;;;;;22.33;17.33;;;;;;;-0.70;100.00;96512.31;5029894;28;105518;-60
2022/04/04 05:50:54;;;;;;;21.07;16.93;;;;;;;-0.68;100.00;96510.34;5030232;28;101800;-60
2022/04/04 05:53:21;;;;;;;20.80;17.03;;;;;;;-0.75;100.00;96520.69;5030076;28;104189;-60
2022/04/04 05:55:50;;;;;;;19.50;16.17;;;;;;;-0.49;100.00;96515.88;5031257;28;102712;-59
2022/04/04 05:58:17;;;;;;;18.83;15.97;;;;;;;-0.38;100.00;96517.22;5031621;28;101793;-60
2022/04/04 06:00:45;;;;;;;17.67;15.47;;;;;;;-0.33;100.00;96518.28;5032961;28;105552;-60
2022/04/04 06:03:12;;;;;;;19.50;15.07;;;;;;;-0.17;100.00;96511.09;5031546;27;101872;-60
2022/04/04 06:05:39;;;;;;;21.40;17.07;;;;;;;-0.20;100.00;96514.06;5030157;28;105154;-60
2022/04/04 06:08:06;;;;;;;20.57;16.37;;;;;;;-0.17;100.00;96510.28;5029688;28;105506;-60
2022/04/04 06:10:33;;;;;;;21.17;14.93;;;;;;;-0.02;100.00;96514.50;5030273;28;102088;-59
2022/04/04 06:13:02;;;;;;;18.43;15.50;;;;;;;-0.17;100.00;96517.31;5029531;27;105416;-60
2022/04/04 06:15:29;;;;;;;18.17;14.33;;;;;;;0.09;100.00;96515.84;5029445;28;103767;-60
2022/04/04 06:17:56;;;;;;;19.17;14.73;;;;;;;0.29;100.00;96509.06;5029970;28;101876;-60
2022/04/04 06:20:23;;;;;;;19.83;14.03;;;;;;;0.43;100.00;96514.25;5029825;28;105360;-59
2022/04/04 06:22:50;;;;;;;14.63;12.47;;;;;;;0.36;100.00;96515.16;5032838;28;106507;-60
2022/04/04 06:25:17;;;;;;;15.80;12.73;;;;;;;0.42;100.00;96511.81;5030019;28;104862;-59
2022/04/04 06:27:44;;;;;;;13.20;11.13;;;;;;;0.47;100.00;96512.88;5028768;28;104166;-60
2022/04/04 06:30:14;;;;;;;13.37;10.97;;;;;;;0.54;100.00;96505.91;5029177;28;102207;-60
2022/04/04 06:32:43;;;;;;;13.30;10.70;;;;;;;0.21;100.00;96515.19;5029611;28;106021;-60
2022/04/04 06:35:10;;;;;;;12.50;10.67;;;;;;;0.41;100.00;96518.03;5029226;28;106753;-60
2022/04/04 06:37:37;;;;;;;13.20;10.77;;;;;;;0.59;100.00;96510.56;5029501;28;101934;-59
2022/04/04 06:40:06;;;;;;;14.03;10.57;;;;;;;0.70;100.00;96504.84;5029757;28;104748;-60
2022/04/04 06:42:35;;;;;;;14.33;10.67;;;;;;;0.62;100.00;96505.00;5028923;28;105442;-60
2022/04/04 06:45:03;;;;;;;13.10;11.07;;;;;;;0.87;100.00;96500.97;5034584;28;101704;-60
2022/04/04 06:47:32;;;;;;;13.60;11.83;;;;;;;1.16;100.00;96511.31;5030153;27;102558;-60
2022/04/04 06:49:59;;;;;;;15.50;12.73;;;;;;;1.11;100.00;96505.84;5030246;27;101778;-60
2022/04/04 06:52:27;;;;;;;14.27;11.97;;;;;;;1.24;100.00;96511.19;5029288;28;104967;-59
2022/04/04 06:54:56;;;;;;;12.93;11.63;;;;;;;1.37;100.00;96508.69;5030429;28;102717;-60
2022/04/04 06:57:23;;;;;;;12.97;10.40;;;;;;;1.34;100.00;96509.03;5030459;27;101790;-59
2022/04/04 06:59:51;;;;;;;12.47;11.13;;;;;;;1.52;100.00;96512.00;5030774;28;102548;-59
2022/04/04 07:02:18;;;;;;;13.87;11.53;;;;;;;1.30;100.00;96510.41;5028569;28;105511;-60
2022/04/04 07:04:47;;;;;;;12.50;10.67;;;;;;;1.51;100.00;96510.38;5034199;28;101778;-59
2022/04/04 07:07:17;;;;;;;15.53;13.60;;;;;;;1.66;100.00;96511.09;5029894;28;103004;-59
2022/04/04 07:09:44;;;;;;;15.10;12.40;;;;;;;1.99;100.00;96507.66;5029325;28;101676;-60
2022/04/04 07:12:12;;;;;;;15.57;11.90;;;;;;;1.92;100.00;96513.88;5028981;28;103651;-59
2022/04/04 07:14:38;;;;;;;13.20;11.80;;;;;;;2.04;100.00;96514.94;5028580;28;105324;-59
2022/04/04 07:17:06;;;;;;;14.33;12.07;;;;;;;2.04;100.00;96515.75;5028924;28;102188;-59
2022/04/04 07:19:33;;;;;;;19.07;10.97;;;;;;;2.17;100.00;96514.97;5030447;27;102473;-60
2022/04/04 07:22:03;;;;;;;12.87;10.70;;;;;;;1.88;100.00;96510.81;5028464;28;105230;-59
2022/04/04 07:24:30;;;;;;;11.07;9.50;;;;;;;1.80;100.00;96512.81;5027987;27;101985;-59
2022/04/04 07:26:58;;;;;;;11.33;10.17;;;;;;;1.81;100.00;96514.41;5032679;28;105502;-59
2022/04/04 07:29:25;;;;;;;11.40;10.20;;;;;;;1.85;100.00;96518.25;5027767;28;102436;-60
2022/04/04 07:31:53;;;;;;;11.20;9.93;;;;;;;2.10;100.00;96514.97;5028898;28;104883;-59
2022/04/04 07:34:20;;;;;;;12.13;10.57;;;;;;;2.23;100.00;96512.41;5029177;28;105322;-60
2022/04/04 07:36:47;;;;;;;11.73;10.20;;;;;;;2.38;100.00;96512.25;5028862;28;101774;-60
2022/04/04 07:39:15;;;;;;;11.53;10.20;;;;;;;2.62;100.00;96502.03;5028476;28;105024;-59
2022/04/04 07:41:44;;;;;;;10.00;8.93;;;;;;;2.27;100.00;96510.19;5027976;28;105402;-59
2022/04/04 07:44:12;;;;;;;9.40;8.50;;;;;;;2.40;100.00;96507.63;5030867;27;101792;-59
2022/04/04 07:46:39;;;;;;;9.37;8.17;;;;;;;2.75;100.00;96506.50;5029693;28;104155;-59
2022/04/04 07:49:06;;;;;;;10.90;8.20;;;;;;;2.80;100.00;96504.88;5031750;28;106524;-59
2022/04/04 07:51:33;;;;;;;8.17;7.13;;;;;;;2.49;100.00;96509.06;5029605;28;103636;-59
2022/04/04 07:54:01;;;;;;;9.10;8.00;;;;;;;2.38;100.00;96504.38;5028776;28;105110;-59
2022/04/04 07:56:29;;;;;;;8.97;7.07;;;;;;;2.44;100.00;96503.59;5029418;28;101863;-59
2022/04/04 07:58:56;;;;;;;8.17;6.87;;;;;;;2.20;100.00;96496.25;5029498;28;105022;-59
2022/04/04 08:01:24;;;;;;;8.10;7.30;;;;;;;2.25;100.00;96496.47;5028535;28;105286;-59
2022/04/04 08:03:51;;;;;;;8.23;7.43;;;;;;;2.48;100.00;96499.56;5029319;28;101785;-59
2022/04/04 08:06:19;;;;;;;8.97;8.07;;;;;;;3.13;100.00;96483.94;5029344;28;105602;-59
2022/04/04 08:08:46;;;;;;;7.57;6.77;;;;;;;3.13;100.00;96486.56;5028428;28;105477;-59
2022/04/04 08:11:13;;;;;;;9.07;6.47;;;;;;;2.85;100.00;96486.72;5032712;28;101907;-59
2022/04/04 08:13:44;;;;;;;6.63;5.83;;;;;;;3.03;100.00;96488.75;5029910;28;102917;-59
2022/04/04 08:16:11;;;;;;;7.27;6.57;;;;;;;3.22;100.00;96475.63;5029134;28;101827;-59
2022/04/04 08:18:38;;;;;;;7.27;6.53;;;;;;;3.11;100.00;96475.44;5029232;28;105053;-60
2022/04/04 08:21:05;;;;;;;7.40;5.80;;;;;;;2.91;100.00;96477.25;5028532;28;105230;-60
2022/04/04 08:23:33;;;;;;;8.23;6.30;;;;;;;2.55;100.00;96480.22;5028859;28;101811;-60
2022/04/04 08:26:00;;;;;;;7.43;6.20;;;;;;;2.36;100.00;96480.94;5029141;28;105203;-60
2022/04/04 08:28:29;;;;;;;7.70;6.90;;;;;;;2.60;100.00;96479.59;5028354;28;105470;-60
2022/04/04 08:31:03;;;;;;;8.20;6.67;;;;;;;2.69;100.00;96471.34;5028613;27;102208;-60
2022/04/04 08:33:30;;;;;;;7.90;7.10;;;;;;;2.44;100.00;96472.09;5030362;28;105466;-60
2022/04/04 08:36:00;;;;;;;9.33;7.10;;;;;;;2.77;100.00;96476.41;5027194;28;103049;-60
2022/04/04 08:38:27;;;;;;;8.83;7.37;;;;;;;3.24;100.00;96475.44;5028488;28;104382;-60
2022/04/04 08:41:00;;;;;;;8.67;7.00;;;;;;;3.24;100.00;96470.19;5046472;27;105696;-60
2022/04/04 08:43:29;;;;;;;8.40;7.23;;;;;;;3.03;100.00;96454.63;5026477;28;102300;-60
2022/04/04 08:45:56;;;;;;;7.80;7.10;;;;;;;3.15;100.00;96463.50;5024394;28;103593;-60
2022/04/04 08:48:24;;;;;;;8.70;7.63;;;;;;;3.62;100.00;96464.09;5026471;28;105718;-60
2022/04/04 08:50:51;;;;;;;8.23;7.43;;;;;;;3.30;100.00;96464.09;5026754;28;101994;-60
2022/04/04 08:53:17;;;;;;;9.33;7.70;;;;;;;3.54;100.00;96461.66;5026719;28;105390;-60
2022/04/04 08:55:45;;;;;;;8.47;7.57;;;;;;;3.65;100.00;96468.13;5029123;27;102367;-60
2022/04/04 08:58:11;;;;;;;8.73;7.83;;;;;;;3.64;100.00;96461.22;5026806;28;105777;-59
2022/04/04 09:00:40;;;;;;;8.90;8.03;;;;;;;4.09;100.00;96460.31;5025965;28;105402;-60
2022/04/04 09:03:09;;;;;;;8.27;7.20;;;;;;;3.72;100.00;96447.88;5028273;27;102161;-59
2022/04/04 09:05:51;;;;;;;8.00;7.20;;;;;;;3.74;100.00;96456.34;5024270;28;105437;-60
2022/04/04 09:08:20;;;;;;;9.20;8.10;;;;;;;3.90;100.00;96446.22;5026347;28;106049;-59
2022/04/04 09:10:48;;;;;;;8.00;7.20;;;;;;;3.98;100.00;96442.53;5026765;28;101929;-59
2022/04/04 09:13:17;;;;;;;9.37;8.37;;;;;;;4.08;100.00;96448.16;5026633;28;105609;-59
2022/04/04 09:15:59;;;;;;;9.20;7.87;;;;;;;4.10;100.00;96444.28;5029266;28;104383;-59
2022/04/04 09:18:45;;;;;;;8.63;7.60;;;;;;;4.59;100.00;96435.75;5029589;28;102817;-59
2022/04/04 09:21:31;;;;;;;8.60;7.70;;;;;;;4.13;100.00;96432.53;5027095;28;105041;-59
2022/04/04 09:24:01;;;;;;;8.27;7.23;;;;;;;4.20;100.00;96426.25;5027962;28;101768;-59
2022/04/04 09:26:34;;;;;;;11.20;8.13;;;;;;;3.68;100.00;96426.44;5028096;28;105071;-59
2022/04/04 09:29:06;;;;;;;8.90;7.47;;;;;;;3.97;100.00;96423.31;5026727;28;105062;-59
2022/04/04 09:31:33;;;;;;;9.37;7.63;;;;;;;4.40;100.00;96411.16;5027955;28;101833;-59
2022/04/04 09:34:03;;;;;;;7.97;7.17;;;;;;;4.35;100.00;96413.63;5027755;28;104898;-59
2022/04/04 09:36:32;;;;;;;8.77;7.87;;;;;;;4.53;100.00;96411.06;5027259;28;105326;-59
2022/04/04 09:39:07;;;;;;;10.17;7.53;;;;;;;4.23;100.00;96401.31;5031117;28;101966;-59
2022/04/04 09:41:36;;;;;;;11.70;8.00;;;;;;;4.39;100.00;96406.91;5027015;28;105839;-59
2022/04/04 09:44:06;;;;;;;9.70;7.47;;;;;;;4.72;100.00;96409.31;5027591;28;101864;-59
2022/04/04 09:46:38;;;;;;;7.90;7.10;;;;;;;4.94;100.00;96397.41;5028507;27;103527;-59
2022/04/04 09:49:08;;;;;;;9.40;7.80;;;;;;;5.25;100.00;96395.50;5029792;28;104930;-59
2022/04/04 09:51:48;;;;;;;8.37;7.47;;;;;;;5.49;100.00;96393.84;5032425;28;102025;-59
2022/04/04 09:54:17;;;;;;;8.23;7.43;;;;;;;5.32;100.00;96384.91;5030643;28;105391;-59
2022/04/04 09:56:46;;;;;;;9.00;7.27;;;;;;;5.18;100.00;96389.50;5030560;28;105356;-59
2022/04/04 09:59:15;;;;;;;8.97;8.17;;;;;;;4.77;100.00;96391.06;5030506;28;101937;-59
2022/04/04 10:01:44;;;;;;;8.83;7.83;;;;;;;5.06;100.00;96385.97;5033669;28;105619;-59
2022/04/04 10:04:13;;;;;;;9.13;8.23;;;;;;;4.84;100.00;96382.09;5030968;28;101780;-59
2022/04/04 10:06:47;;;;;;;8.17;7.37;;;;;;;4.46;100.00;96380.53;5030713;28;106018;-59
2022/04/04 10:09:14;;;;;;;8.53;7.63;;;;;;;4.42;100.00;96377.50;5029877;28;105479;-59
2022/04/04 10:11:42;;;;;;;7.70;7.00;;;;;;;4.41;100.00;96364.56;5030763;28;101934;-59
2022/04/04 10:14:11;;;;;;;7.90;7.13;;;;;;;4.95;100.00;96364.75;5028918;28;105831;-59
2022/04/04 10:16:39;;;;;;;7.77;7.07;;;;;;;4.62;100.00;96351.88;5029941;28;106094;-59
2022/04/04 10:19:14;;;;;;;8.00;7.17;;;;;;;5.05;100.00;96352.72;5030579;28;101963;-59
2022/04/04 10:21:43;;;;;;;7.40;6.70;;;;;;;5.01;100.00;96348.91;5030228;28;104066;-59
2022/04/04 10:24:12;;;;;;;7.27;6.57;;;;;;;5.04;100.00;96351.13;5033499;28;105666;-59
2022/04/04 10:26:39;;;;;;;6.87;6.27;;;;;;;5.23;99.42;96344.06;5030483;28;106262;-59
2022/04/04 10:29:12;;;;;;;7.60;6.90;;;;;;;5.18;98.44;96336.78;5029469;28;105088;-59
2022/04/04 10:31:48;;;;;;;7.27;6.50;;;;;;;4.95;96.33;96348.94;5030686;28;102202;-59
2022/04/04 10:34:17;;;;;;;6.70;6.10;;;;;;;4.81;96.15;96327.19;5031960;28;102867;-59
2022/04/04 10:37:00;;;;;;;6.60;6.00;;;;;;;4.74;92.19;96328.28;5029529;28;105280;-59
2022/04/04 10:39:41;;;;;;;6.77;5.80;;;;;;;4.74;97.26;96323.03;5030142;28;101767;-59
2022/04/04 10:42:30;;;;;;;6.77;6.10;;;;;;;4.85;95.90;96324.94;5030331;28;105165;-59
2022/04/04 10:45:03;;;;;;;7.27;6.67;;;;;;;4.50;94.38;96305.38;5029561;28;105357;-59
2022/04/04 10:47:31;;;;;;;7.00;6.30;;;;;;;4.47;97.17;96314.50;5033633;28;101732;-60
2022/04/04 10:50:18;;;;;;;7.20;6.60;;;;;;;4.41;99.03;96317.16;5030396;28;102493;-60
2022/04/04 10:52:47;;;;;;;7.30;6.67;;;;;;;4.56;99.31;96301.88;5029986;28;101808;-60
2022/04/04 10:55:52;;;;;;;7.83;6.33;;;;;;;4.41;97.96;96298.75;5030099;28;105203;-59
2022/04/04 10:58:22;;;;;;;7.70;6.90;;;;;;;4.95;100.00;96304.97;5030966;27;103075;-59
2022/04/04 11:01:07;;;;;;;7.03;6.33;;;;;;;5.08;96.80;96301.41;5030067;28;101846;-59
2022/04/04 11:03:36;;;;;;;7.50;6.80;;;;;;;5.17;96.98;96300.09;5029693;28;105255;-59
2022/04/04 11:09:02;;;;;;;7.67;6.87;;;;;;;5.53;95.68;96276.38;5033353;28;102317;-60
2022/04/04 11:11:48;;;;;;;7.87;6.40;;;;;;;5.63;90.01;96281.91;5029263;28;104991;-59
2022/04/04 11:14:17;;;;;;;7.33;6.63;;;;;;;5.81;88.31;96279.28;5029848;28;102102;-60
2022/04/04 11:17:23;;;;;;;7.23;6.53;;;;;;;5.43;85.57;96291.91;5029445;28;104142;-60
2022/04/04 11:19:53;;;;;;;8.73;6.43;;;;;;;5.18;89.50;96280.63;4971311;28;104896;-57
2022/04/04 11:22:22;;;;;;;7.57;6.77;;;;;;;5.41;93.04;96272.88;5005307;28;101813;-56
2022/04/04 11:24:55;;;;;;;7.33;6.63;;;;;;;5.59;87.33;96271.00;4988503;28;102917;-55
2022/04/04 11:27:25;;;;;;;7.47;6.73;;;;;;;6.40;86.75;96261.56;5004435;28;105250;-57
2022/04/04 11:29:53;;;;;;;7.07;6.37;;;;;;;6.05;82.14;96265.16;5005214;28;101928;-57
2022/04/04 11:32:28;;;;;;;6.97;6.23;;;;;;;5.71;94.05;96247.31;4974032;28;105635;-57